sensor_id;sensor_type;location;lat;lon;timestamp;temperature;humidity
37594;DHT22;23441;50.856;6.076;2023-06-14T00:00:40;16.40;88.10
37594;DHT22;23441;50.856;6.076;2023-06-14T00:03:10;16.40;88.30
37594;DHT22;23441;50.856;6.076;2023-06-14T00:05:37;16.30;87.60
37594;DHT22;23441;50.856;6.076;2023-06-14T00:08:09;16.30;88.30
37594;DHT22;23441;50.856;6.076;2023-06-14T00:10:38;16.20;88.60
37594;DHT22;23441;50.856;6.076;2023-06-14T00:13:07;16.20;89.30
37594;DHT22;23441;50.856;6.076;2023-06-14T00:15:33;16.10;89.70
37594;DHT22;23441;50.856;6.076;2023-06-14T00:17:59;16.10;89.40
37594;DHT22;23441;50.856;6.076;2023-06-14T00:20:30;16.00;90.00
37594;DHT22;23441;50.856;6.076;2023-06-14T00:22:58;16.00;89.60
37594;DHT22;23441;50.856;6.076;2023-06-14T00:25:24;15.90;90.30
37594;DHT22;23441;50.856;6.076;2023-06-14T00:27:54;15.90;90.30
37594;DHT22;23441;50.856;6.076;2023-06-14T00:30:22;15.90;90.60
37594;DHT22;23441;50.856;6.076;2023-06-14T00:32:48;15.80;90.70
37594;DHT22;23441;50.856;6.076;2023-06-14T00:35:14;15.80;90.80
37594;DHT22;23441;50.856;6.076;2023-06-14T00:37:40;15.80;90.80
37594;DHT22;23441;50.856;6.076;2023-06-14T00:40:06;15.70;91.20
37594;DHT22;23441;50.856;6.076;2023-06-14T00:42:33;15.70;91.30
37594;DHT22;23441;50.856;6.076;2023-06-14T00:44:59;15.70;91.50
37594;DHT22;23441;50.856;6.076;2023-06-14T00:47:25;15.70;91.80
37594;DHT22;23441;50.856;6.076;2023-06-14T00:49:53;15.60;91.70
37594;DHT22;23441;50.856;6.076;2023-06-14T00:52:19;15.60;91.70
37594;DHT22;23441;50.856;6.076;2023-06-14T00:54:46;15.50;92.20
37594;DHT22;23441;50.856;6.076;2023-06-14T00:57:12;15.50;92.00
37594;DHT22;23441;50.856;6.076;2023-06-14T00:59:43;15.40;92.10
37594;DHT22;23441;50.856;6.076;2023-06-14T01:02:09;15.40;92.40
37594;DHT22;23441;50.856;6.076;2023-06-14T01:04:35;15.40;92.50
37594;DHT22;23441;50.856;6.076;2023-06-14T01:09:55;15.30;92.80
37594;DHT22;23441;50.856;6.076;2023-06-14T01:15:01;15.30;93.10
37594;DHT22;23441;50.856;6.076;2023-06-14T01:17:27;15.30;93.50
37594;DHT22;23441;50.856;6.076;2023-06-14T01:20:01;15.30;93.80
37594;DHT22;23441;50.856;6.076;2023-06-14T01:22:28;15.20;93.90
37594;DHT22;23441;50.856;6.076;2023-06-14T01:24:54;15.20;94.10
37594;DHT22;23441;50.856;6.076;2023-06-14T01:27:26;15.10;94.40
37594;DHT22;23441;50.856;6.076;2023-06-14T01:29:55;15.00;94.80
37594;DHT22;23441;50.856;6.076;2023-06-14T01:32:27;15.00;94.90
37594;DHT22;23441;50.856;6.076;2023-06-14T01:34:53;14.90;95.00
37594;DHT22;23441;50.856;6.076;2023-06-14T01:37:20;14.90;94.80
37594;DHT22;23441;50.856;6.076;2023-06-14T01:39:48;14.90;95.10
37594;DHT22;23441;50.856;6.076;2023-06-14T01:42:15;14.90;95.70
37594;DHT22;23441;50.856;6.076;2023-06-14T01:44:42;14.90;96.20
37594;DHT22;23441;50.856;6.076;2023-06-14T01:47:09;14.90;96.00
37594;DHT22;23441;50.856;6.076;2023-06-14T01:49:35;14.80;96.00
37594;DHT22;23441;50.856;6.076;2023-06-14T01:52:01;14.80;96.30
37594;DHT22;23441;50.856;6.076;2023-06-14T01:54:26;14.80;96.50
37594;DHT22;23441;50.856;6.076;2023-06-14T01:56:52;14.80;96.70
37594;DHT22;23441;50.856;6.076;2023-06-14T01:59:18;14.70;96.70
37594;DHT22;23441;50.856;6.076;2023-06-14T02:01:44;14.70;97.10
37594;DHT22;23441;50.856;6.076;2023-06-14T02:04:11;14.70;97.30
37594;DHT22;23441;50.856;6.076;2023-06-14T02:06:37;14.60;97.70
37594;DHT22;23441;50.856;6.076;2023-06-14T02:09:03;14.60;98.40
37594;DHT22;23441;50.856;6.076;2023-06-14T02:11:29;14.60;98.80
37594;DHT22;23441;50.856;6.076;2023-06-14T02:13:55;14.60;99.00
37594;DHT22;23441;50.856;6.076;2023-06-14T02:16:21;14.60;99.20
37594;DHT22;23441;50.856;6.076;2023-06-14T02:18:47;14.50;99.00
37594;DHT22;23441;50.856;6.076;2023-06-14T02:21:14;14.40;99.10
37594;DHT22;23441;50.856;6.076;2023-06-14T02:23:40;14.40;99.40
37594;DHT22;23441;50.856;6.076;2023-06-14T02:26:06;14.40;99.90
37594;DHT22;23441;50.856;6.076;2023-06-14T02:28:31;14.30;99.70
37594;DHT22;23441;50.856;6.076;2023-06-14T02:30:57;14.30;99.90
37594;DHT22;23441;50.856;6.076;2023-06-14T02:33:23;14.30;99.60
37594;DHT22;23441;50.856;6.076;2023-06-14T02:35:48;14.30;99.90
37594;DHT22;23441;50.856;6.076;2023-06-14T02:38:14;14.30;99.90
37594;DHT22;23441;50.856;6.076;2023-06-14T02:40:39;14.30;99.90
37594;DHT22;23441;50.856;6.076;2023-06-14T02:43:08;14.20;99.90
37594;DHT22;23441;50.856;6.076;2023-06-14T02:45:33;14.20;99.90
37594;DHT22;23441;50.856;6.076;2023-06-14T02:47:59;14.10;99.90
37594;DHT22;23441;50.856;6.076;2023-06-14T02:50:25;14.20;99.90
37594;DHT22;23441;50.856;6.076;2023-06-14T02:52:50;14.20;99.90
37594;DHT22;23441;50.856;6.076;2023-06-14T02:55:17;14.10;99.90
37594;DHT22;23441;50.856;6.076;2023-06-14T02:57:43;14.00;99.90
37594;DHT22;23441;50.856;6.076;2023-06-14T03:00:09;14.00;99.90
37594;DHT22;23441;50.856;6.076;2023-06-14T03:02:35;13.90;99.90
37594;DHT22;23441;50.856;6.076;2023-06-14T03:05:01;13.90;99.90
37594;DHT22;23441;50.856;6.076;2023-06-14T03:07:28;13.90;99.90
37594;DHT22;23441;50.856;6.076;2023-06-14T03:09:55;13.90;99.90
37594;DHT22;23441;50.856;6.076;2023-06-14T03:12:20;13.90;99.90
37594;DHT22;23441;50.856;6.076;2023-06-14T03:14:46;13.90;99.90
37594;DHT22;23441;50.856;6.076;2023-06-14T03:17:12;13.80;99.90
37594;DHT22;23441;50.856;6.076;2023-06-14T03:19:38;13.80;99.90
37594;DHT22;23441;50.856;6.076;2023-06-14T03:22:03;13.80;99.90
37594;DHT22;23441;50.856;6.076;2023-06-14T03:24:30;13.80;99.90
37594;DHT22;23441;50.856;6.076;2023-06-14T03:26:57;13.80;99.90
37594;DHT22;23441;50.856;6.076;2023-06-14T03:29:23;13.80;99.90
37594;DHT22;23441;50.856;6.076;2023-06-14T03:32:02;13.80;99.90
37594;DHT22;23441;50.856;6.076;2023-06-14T03:34:28;13.80;99.90
37594;DHT22;23441;50.856;6.076;2023-06-14T03:36:53;13.70;99.90
37594;DHT22;23441;50.856;6.076;2023-06-14T03:39:19;13.70;99.90
37594;DHT22;23441;50.856;6.076;2023-06-14T03:41:45;13.80;99.90
37594;DHT22;23441;50.856;6.076;2023-06-14T03:44:11;13.80;99.90
37594;DHT22;23441;50.856;6.076;2023-06-14T03:46:37;13.80;99.90
37594;DHT22;23441;50.856;6.076;2023-06-14T03:49:02;13.80;99.90
37594;DHT22;23441;50.856;6.076;2023-06-14T03:51:28;13.80;99.90
37594;DHT22;23441;50.856;6.076;2023-06-14T03:53:54;13.80;99.90
37594;DHT22;23441;50.856;6.076;2023-06-14T03:56:21;13.90;99.90
37594;DHT22;23441;50.856;6.076;2023-06-14T03:58:47;13.90;99.90
37594;DHT22;23441;50.856;6.076;2023-06-14T04:01:12;14.00;99.90
37594;DHT22;23441;50.856;6.076;2023-06-14T04:03:38;13.90;99.90
37594;DHT22;23441;50.856;6.076;2023-06-14T04:06:06;14.00;99.90
37594;DHT22;23441;50.856;6.076;2023-06-14T04:08:31;14.00;99.90
37594;DHT22;23441;50.856;6.076;2023-06-14T04:10:57;14.00;99.90
37594;DHT22;23441;50.856;6.076;2023-06-14T04:13:23;14.10;99.90
37594;DHT22;23441;50.856;6.076;2023-06-14T04:15:49;14.10;99.90
37594;DHT22;23441;50.856;6.076;2023-06-14T04:18:14;14.20;99.90
37594;DHT22;23441;50.856;6.076;2023-06-14T04:20:40;14.20;99.90
37594;DHT22;23441;50.856;6.076;2023-06-14T04:23:13;14.20;99.90
37594;DHT22;23441;50.856;6.076;2023-06-14T04:25:39;14.30;99.90
37594;DHT22;23441;50.856;6.076;2023-06-14T04:31:30;14.40;99.90
37594;DHT22;23441;50.856;6.076;2023-06-14T04:33:59;14.40;99.90
37594;DHT22;23441;50.856;6.076;2023-06-14T04:36:25;14.40;99.90
37594;DHT22;23441;50.856;6.076;2023-06-14T04:38:50;14.50;99.90
37594;DHT22;23441;50.856;6.076;2023-06-14T04:41:22;14.60;99.90
37594;DHT22;23441;50.856;6.076;2023-06-14T04:43:50;14.70;99.90
37594;DHT22;23441;50.856;6.076;2023-06-14T04:46:18;14.80;99.90
37594;DHT22;23441;50.856;6.076;2023-06-14T04:48:44;14.90;99.90
37594;DHT22;23441;50.856;6.076;2023-06-14T04:51:11;15.00;99.90
37594;DHT22;23441;50.856;6.076;2023-06-14T04:53:38;15.00;99.90
37594;DHT22;23441;50.856;6.076;2023-06-14T04:56:05;15.10;99.90
37594;DHT22;23441;50.856;6.076;2023-06-14T04:58:31;15.20;99.90
37594;DHT22;23441;50.856;6.076;2023-06-14T05:00:57;15.30;99.90
37594;DHT22;23441;50.856;6.076;2023-06-14T05:03:24;15.40;99.90
37594;DHT22;23441;50.856;6.076;2023-06-14T05:05:50;15.50;99.90
37594;DHT22;23441;50.856;6.076;2023-06-14T05:08:18;15.60;99.90
37594;DHT22;23441;50.856;6.076;2023-06-14T05:10:45;15.70;99.90
37594;DHT22;23441;50.856;6.076;2023-06-14T05:13:11;15.80;99.90
37594;DHT22;23441;50.856;6.076;2023-06-14T05:28:51;20.40;96.80
37594;DHT22;23441;50.856;6.076;2023-06-14T05:31:18;21.70;91.50
37594;DHT22;23441;50.856;6.076;2023-06-14T05:33:43;22.40;87.30
37594;DHT22;23441;50.856;6.076;2023-06-14T05:36:09;22.90;85.00
37594;DHT22;23441;50.856;6.076;2023-06-14T05:38:35;24.00;82.50
37594;DHT22;23441;50.856;6.076;2023-06-14T05:41:01;23.90;80.00
37594;DHT22;23441;50.856;6.076;2023-06-14T05:43:27;23.50;79.50
37594;DHT22;23441;50.856;6.076;2023-06-14T05:45:53;23.60;78.70
37594;DHT22;23441;50.856;6.076;2023-06-14T05:48:18;23.40;80.30
37594;DHT22;23441;50.856;6.076;2023-06-14T05:50:44;23.80;79.70
37594;DHT22;23441;50.856;6.076;2023-06-14T05:53:09;23.90;79.10
37594;DHT22;23441;50.856;6.076;2023-06-14T05:55:36;24.40;78.10
37594;DHT22;23441;50.856;6.076;2023-06-14T05:58:02;24.80;76.60
37594;DHT22;23441;50.856;6.076;2023-06-14T06:00:27;24.70;76.70
37594;DHT22;23441;50.856;6.076;2023-06-14T06:02:53;25.40;73.10
37594;DHT22;23441;50.856;6.076;2023-06-14T06:05:18;25.80;70.60
37594;DHT22;23441;50.856;6.076;2023-06-14T06:07:44;25.90;72.80
37594;DHT22;23441;50.856;6.076;2023-06-14T06:10:10;26.50;71.80
37594;DHT22;23441;50.856;6.076;2023-06-14T06:12:37;26.60;68.10
37594;DHT22;23441;50.856;6.076;2023-06-14T06:15:03;27.00;69.60
37594;DHT22;23441;50.856;6.076;2023-06-14T06:17:29;27.20;70.10
37594;DHT22;23441;50.856;6.076;2023-06-14T06:19:55;26.90;67.80
37594;DHT22;23441;50.856;6.076;2023-06-14T06:22:21;27.60;68.80
37594;DHT22;23441;50.856;6.076;2023-06-14T06:24:46;27.40;67.90
37594;DHT22;23441;50.856;6.076;2023-06-14T06:27:12;27.10;66.90
37594;DHT22;23441;50.856;6.076;2023-06-14T06:29:38;26.80;66.20
37594;DHT22;23441;50.856;6.076;2023-06-14T06:32:04;27.40;68.80
37594;DHT22;23441;50.856;6.076;2023-06-14T06:34:30;27.80;69.30
37594;DHT22;23441;50.856;6.076;2023-06-14T06:36:56;28.20;66.10
37594;DHT22;23441;50.856;6.076;2023-06-14T06:39:21;28.60;66.70
37594;DHT22;23441;50.856;6.076;2023-06-14T06:41:47;28.70;68.50
37594;DHT22;23441;50.856;6.076;2023-06-14T06:44:13;29.10;67.70
37594;DHT22;23441;50.856;6.076;2023-06-14T06:46:39;29.20;68.00
37594;DHT22;23441;50.856;6.076;2023-06-14T06:49:06;29.40;65.30
37594;DHT22;23441;50.856;6.076;2023-06-14T06:51:32;29.90;66.00
37594;DHT22;23441;50.856;6.076;2023-06-14T06:53:58;29.60;64.90
37594;DHT22;23441;50.856;6.076;2023-06-14T06:56:23;29.90;65.10
37594;DHT22;23441;50.856;6.076;2023-06-14T06:58:50;29.90;66.30
37594;DHT22;23441;50.856;6.076;2023-06-14T07:01:16;29.80;64.50
37594;DHT22;23441;50.856;6.076;2023-06-14T07:03:42;30.10;63.70
37594;DHT22;23441;50.856;6.076;2023-06-14T07:06:08;30.30;62.90
37594;DHT22;23441;50.856;6.076;2023-06-14T07:08:33;30.50;64.30
37594;DHT22;23441;50.856;6.076;2023-06-14T07:10:59;30.80;63.40
37594;DHT22;23441;50.856;6.076;2023-06-14T07:13:25;30.50;61.40
37594;DHT22;23441;50.856;6.076;2023-06-14T07:15:53;30.10;63.00
37594;DHT22;23441;50.856;6.076;2023-06-14T07:18:19;29.60;63.40
37594;DHT22;23441;50.856;6.076;2023-06-14T07:20:45;29.10;62.80
37594;DHT22;23441;50.856;6.076;2023-06-14T07:23:12;29.90;63.80
37594;DHT22;23441;50.856;6.076;2023-06-14T07:25:38;29.70;62.00
37594;DHT22;23441;50.856;6.076;2023-06-14T07:28:03;29.90;64.00
37594;DHT22;23441;50.856;6.076;2023-06-14T07:30:29;30.00;63.40
37594;DHT22;23441;50.856;6.076;2023-06-14T07:32:55;30.30;62.00
37594;DHT22;23441;50.856;6.076;2023-06-14T07:35:22;30.70;63.20
37594;DHT22;23441;50.856;6.076;2023-06-14T07:37:48;30.70;61.30
37594;DHT22;23441;50.856;6.076;2023-06-14T07:40:15;30.70;64.10
37594;DHT22;23441;50.856;6.076;2023-06-14T07:42:41;29.90;61.70
37594;DHT22;23441;50.856;6.076;2023-06-14T07:45:07;29.60;62.30
37594;DHT22;23441;50.856;6.076;2023-06-14T07:47:33;29.40;62.90
37594;DHT22;23441;50.856;6.076;2023-06-14T07:49:59;29.40;62.90
37594;DHT22;23441;50.856;6.076;2023-06-14T07:52:25;30.10;64.10
37594;DHT22;23441;50.856;6.076;2023-06-14T07:54:51;29.50;61.00
37594;DHT22;23441;50.856;6.076;2023-06-14T07:57:16;29.90;64.40
37594;DHT22;23441;50.856;6.076;2023-06-14T07:59:42;30.20;62.50
37594;DHT22;23441;50.856;6.076;2023-06-14T08:02:08;29.80;63.70
37594;DHT22;23441;50.856;6.076;2023-06-14T08:04:33;30.00;61.80
37594;DHT22;23441;50.856;6.076;2023-06-14T08:06:59;30.20;60.30
37594;DHT22;23441;50.856;6.076;2023-06-14T08:09:26;30.10;60.00
37594;DHT22;23441;50.856;6.076;2023-06-14T08:11:53;30.20;61.00
37594;DHT22;23441;50.856;6.076;2023-06-14T08:14:18;29.80;61.90
37594;DHT22;23441;50.856;6.076;2023-06-14T08:16:44;29.80;62.80
37594;DHT22;23441;50.856;6.076;2023-06-14T08:19:10;29.30;62.30
37594;DHT22;23441;50.856;6.076;2023-06-14T08:21:35;29.30;61.70
37594;DHT22;23441;50.856;6.076;2023-06-14T08:24:02;29.60;60.80
37594;DHT22;23441;50.856;6.076;2023-06-14T08:26:29;29.90;61.70
37594;DHT22;23441;50.856;6.076;2023-06-14T08:28:55;30.00;60.20
37594;DHT22;23441;50.856;6.076;2023-06-14T08:31:21;30.30;60.30
37594;DHT22;23441;50.856;6.076;2023-06-14T08:33:47;30.10;60.70
37594;DHT22;23441;50.856;6.076;2023-06-14T08:36:13;30.10;59.30
37594;DHT22;23441;50.856;6.076;2023-06-14T08:38:39;30.10;60.50
37594;DHT22;23441;50.856;6.076;2023-06-14T08:41:05;30.70;60.10
37594;DHT22;23441;50.856;6.076;2023-06-14T08:43:32;31.20;60.30
37594;DHT22;23441;50.856;6.076;2023-06-14T08:46:03;31.50;59.20
37594;DHT22;23441;50.856;6.076;2023-06-14T08:48:30;31.80;57.20
37594;DHT22;23441;50.856;6.076;2023-06-14T08:51:02;31.20;58.20
37594;DHT22;23441;50.856;6.076;2023-06-14T08:53:33;31.40;57.10
37594;DHT22;23441;50.856;6.076;2023-06-14T08:56:02;31.30;57.90
37594;DHT22;23441;50.856;6.076;2023-06-14T08:58:30;31.00;59.90
37594;DHT22;23441;50.856;6.076;2023-06-14T09:00:57;31.60;58.10
37594;DHT22;23441;50.856;6.076;2023-06-14T09:03:24;31.40;59.40
37594;DHT22;23441;50.856;6.076;2023-06-14T09:05:57;31.90;58.40
37594;DHT22;23441;50.856;6.076;2023-06-14T09:08:27;32.30;58.80
37594;DHT22;23441;50.856;6.076;2023-06-14T09:10:57;32.20;56.20
37594;DHT22;23441;50.856;6.076;2023-06-14T09:13:23;31.30;57.60
37594;DHT22;23441;50.856;6.076;2023-06-14T09:15:48;31.00;57.60
37594;DHT22;23441;50.856;6.076;2023-06-14T09:18:15;31.00;57.70
37594;DHT22;23441;50.856;6.076;2023-06-14T09:20:41;30.90;58.40
37594;DHT22;23441;50.856;6.076;2023-06-14T09:23:06;30.80;58.10
37594;DHT22;23441;50.856;6.076;2023-06-14T09:25:42;31.50;58.60
37594;DHT22;23441;50.856;6.076;2023-06-14T09:28:11;31.50;57.90
37594;DHT22;23441;50.856;6.076;2023-06-14T09:30:37;31.50;55.80
37594;DHT22;23441;50.856;6.076;2023-06-14T09:33:03;31.60;58.40
37594;DHT22;23441;50.856;6.076;2023-06-14T09:35:31;31.40;57.80
37594;DHT22;23441;50.856;6.076;2023-06-14T09:37:57;30.90;57.40
37594;DHT22;23441;50.856;6.076;2023-06-14T09:40:23;31.10;59.40
37594;DHT22;23441;50.856;6.076;2023-06-14T09:42:49;31.50;59.60
37594;DHT22;23441;50.856;6.076;2023-06-14T09:45:15;31.10;57.40
37594;DHT22;23441;50.856;6.076;2023-06-14T09:47:49;30.00;58.40
37594;DHT22;23441;50.856;6.076;2023-06-14T09:50:15;29.60;57.00
37594;DHT22;23441;50.856;6.076;2023-06-14T09:52:43;29.70;58.10
37594;DHT22;23441;50.856;6.076;2023-06-14T09:55:13;29.20;57.50
37594;DHT22;23441;50.856;6.076;2023-06-14T09:57:45;28.40;57.10
37594;DHT22;23441;50.856;6.076;2023-06-14T10:00:13;28.50;58.60
37594;DHT22;23441;50.856;6.076;2023-06-14T10:02:42;28.80;59.70
37594;DHT22;23441;50.856;6.076;2023-06-14T10:05:15;29.10;58.50
37594;DHT22;23441;50.856;6.076;2023-06-14T10:10:18;29.40;58.10
37594;DHT22;23441;50.856;6.076;2023-06-14T10:12:44;29.40;57.60
37594;DHT22;23441;50.856;6.076;2023-06-14T10:15:15;29.30;57.30
37594;DHT22;23441;50.856;6.076;2023-06-14T10:21:16;30.00;58.60
37594;DHT22;23441;50.856;6.076;2023-06-14T10:23:45;29.90;58.80
37594;DHT22;23441;50.856;6.076;2023-06-14T10:26:23;29.50;59.30
37594;DHT22;23441;50.856;6.076;2023-06-14T10:29:08;29.50;58.60
37594;DHT22;23441;50.856;6.076;2023-06-14T10:31:56;29.20;58.60
37594;DHT22;23441;50.856;6.076;2023-06-14T10:34:29;29.10;58.10
37594;DHT22;23441;50.856;6.076;2023-06-14T10:37:06;28.80;57.50
37594;DHT22;23441;50.856;6.076;2023-06-14T10:39:42;28.90;58.90
37594;DHT22;23441;50.856;6.076;2023-06-14T10:42:12;28.90;59.30
37594;DHT22;23441;50.856;6.076;2023-06-14T10:47:25;29.90;56.30
37594;DHT22;23441;50.856;6.076;2023-06-14T10:52:28;29.60;55.60
37594;DHT22;23441;50.856;6.076;2023-06-14T10:57:48;29.50;55.40
37594;DHT22;23441;50.856;6.076;2023-06-14T11:00:18;29.60;57.30
37594;DHT22;23441;50.856;6.076;2023-06-14T11:08:27;28.40;55.50
37594;DHT22;23441;50.856;6.076;2023-06-14T11:11:00;28.20;55.80
37594;DHT22;23441;50.856;6.076;2023-06-14T11:13:26;28.60;56.90
37594;DHT22;23441;50.856;6.076;2023-06-14T11:15:52;28.70;56.90
37594;DHT22;23441;50.856;6.076;2023-06-14T11:18:23;28.80;55.80
37594;DHT22;23441;50.856;6.076;2023-06-14T11:20:53;28.70;56.70
37594;DHT22;23441;50.856;6.076;2023-06-14T11:23:20;28.50;58.40
37594;DHT22;23441;50.856;6.076;2023-06-14T11:25:50;28.70;57.60
37594;DHT22;23441;50.856;6.076;2023-06-14T11:28:17;28.60;55.80
37594;DHT22;23441;50.856;6.076;2023-06-14T11:30:45;28.80;57.80
37594;DHT22;23441;50.856;6.076;2023-06-14T11:33:10;28.60;56.20
37594;DHT22;23441;50.856;6.076;2023-06-14T11:35:37;28.60;57.20
37594;DHT22;23441;50.856;6.076;2023-06-14T11:38:03;28.60;59.20
37594;DHT22;23441;50.856;6.076;2023-06-14T11:40:29;28.00;57.00
37594;DHT22;23441;50.856;6.076;2023-06-14T11:43:01;28.30;59.10
37594;DHT22;23441;50.856;6.076;2023-06-14T11:45:27;28.20;57.60
37594;DHT22;23441;50.856;6.076;2023-06-14T11:47:55;28.30;60.70
37594;DHT22;23441;50.856;6.076;2023-06-14T11:50:22;28.00;60.40
37594;DHT22;23441;50.856;6.076;2023-06-14T11:52:54;28.10;60.20
37594;DHT22;23441;50.856;6.076;2023-06-14T11:55:22;28.30;58.40
37594;DHT22;23441;50.856;6.076;2023-06-14T11:57:47;28.20;59.00
37594;DHT22;23441;50.856;6.076;2023-06-14T12:00:13;28.30;59.10
37594;DHT22;23441;50.856;6.076;2023-06-14T12:02:41;28.10;58.60
37594;DHT22;23441;50.856;6.076;2023-06-14T12:05:07;28.20;58.40
37594;DHT22;23441;50.856;6.076;2023-06-14T12:07:37;28.00;60.00
37594;DHT22;23441;50.856;6.076;2023-06-14T12:12:38;28.10;58.20
37594;DHT22;23441;50.856;6.076;2023-06-14T12:15:08;28.40;60.00
37594;DHT22;23441;50.856;6.076;2023-06-14T12:17:37;28.00;59.30
37594;DHT22;23441;50.856;6.076;2023-06-14T12:20:12;28.10;59.30
37594;DHT22;23441;50.856;6.076;2023-06-14T12:22:51;28.00;62.00
37594;DHT22;23441;50.856;6.076;2023-06-14T12:25:28;27.80;60.80
37594;DHT22;23441;50.856;6.076;2023-06-14T12:27:57;28.50;61.30
37594;DHT22;23441;50.856;6.076;2023-06-14T12:30:22;28.40;58.50
37594;DHT22;23441;50.856;6.076;2023-06-14T12:32:48;28.40;61.00
37594;DHT22;23441;50.856;6.076;2023-06-14T12:35:15;28.70;58.90
37594;DHT22;23441;50.856;6.076;2023-06-14T12:37:41;28.50;58.30
37594;DHT22;23441;50.856;6.076;2023-06-14T12:40:07;28.70;59.90
37594;DHT22;23441;50.856;6.076;2023-06-14T12:42:33;28.70;60.50
37594;DHT22;23441;50.856;6.076;2023-06-14T12:44:59;28.40;58.60
37594;DHT22;23441;50.856;6.076;2023-06-14T12:47:25;28.10;59.20
37594;DHT22;23441;50.856;6.076;2023-06-14T12:49:51;27.50;58.20
37594;DHT22;23441;50.856;6.076;2023-06-14T12:52:16;28.00;58.50
37594;DHT22;23441;50.856;6.076;2023-06-14T12:54:42;28.10;59.40
37594;DHT22;23441;50.856;6.076;2023-06-14T12:57:07;28.50;60.80
37594;DHT22;23441;50.856;6.076;2023-06-14T12:59:33;28.10;57.20
37594;DHT22;23441;50.856;6.076;2023-06-14T13:02:13;28.30;57.50
37594;DHT22;23441;50.856;6.076;2023-06-14T13:04:38;28.20;58.80
37594;DHT22;23441;50.856;6.076;2023-06-14T13:07:04;28.40;59.60
37594;DHT22;23441;50.856;6.076;2023-06-14T13:09:30;28.40;58.70
37594;DHT22;23441;50.856;6.076;2023-06-14T13:11:56;28.40;60.30
37594;DHT22;23441;50.856;6.076;2023-06-14T13:14:21;28.80;59.40
37594;DHT22;23441;50.856;6.076;2023-06-14T13:16:47;28.60;59.60
37594;DHT22;23441;50.856;6.076;2023-06-14T13:19:12;28.90;57.40
37594;DHT22;23441;50.856;6.076;2023-06-14T13:21:38;28.40;59.10
37594;DHT22;23441;50.856;6.076;2023-06-14T13:24:04;28.60;57.90
37594;DHT22;23441;50.856;6.076;2023-06-14T13:26:30;28.60;59.20
37594;DHT22;23441;50.856;6.076;2023-06-14T13:28:56;28.60;57.50
37594;DHT22;23441;50.856;6.076;2023-06-14T13:31:21;28.40;57.90
37594;DHT22;23441;50.856;6.076;2023-06-14T13:33:47;28.80;58.90
37594;DHT22;23441;50.856;6.076;2023-06-14T13:36:13;28.60;58.30
37594;DHT22;23441;50.856;6.076;2023-06-14T13:38:38;28.90;60.20
37594;DHT22;23441;50.856;6.076;2023-06-14T13:41:04;29.20;59.00
37594;DHT22;23441;50.856;6.076;2023-06-14T13:43:30;29.20;57.50
37594;DHT22;23441;50.856;6.076;2023-06-14T13:45:56;29.30;57.60
37594;DHT22;23441;50.856;6.076;2023-06-14T13:48:21;29.20;58.00
37594;DHT22;23441;50.856;6.076;2023-06-14T13:50:47;29.10;58.90
37594;DHT22;23441;50.856;6.076;2023-06-14T13:53:13;28.80;57.50
37594;DHT22;23441;50.856;6.076;2023-06-14T13:55:39;28.70;59.00
37594;DHT22;23441;50.856;6.076;2023-06-14T13:58:05;28.60;60.50
37594;DHT22;23441;50.856;6.076;2023-06-14T14:00:30;28.40;59.90
37594;DHT22;23441;50.856;6.076;2023-06-14T14:02:56;28.70;61.00
37594;DHT22;23441;50.856;6.076;2023-06-14T14:05:22;28.80;61.90
37594;DHT22;23441;50.856;6.076;2023-06-14T14:07:54;29.00;61.40
37594;DHT22;23441;50.856;6.076;2023-06-14T14:10:20;29.20;59.50
37594;DHT22;23441;50.856;6.076;2023-06-14T14:12:46;29.10;61.40
37594;DHT22;23441;50.856;6.076;2023-06-14T14:15:12;29.10;62.60
37594;DHT22;23441;50.856;6.076;2023-06-14T14:17:40;29.20;62.20
37594;DHT22;23441;50.856;6.076;2023-06-14T14:20:06;29.20;61.50
37594;DHT22;23441;50.856;6.076;2023-06-14T14:22:32;29.30;60.50
37594;DHT22;23441;50.856;6.076;2023-06-14T14:24:58;28.80;62.30
37594;DHT22;23441;50.856;6.076;2023-06-14T14:27:24;29.20;63.00
37594;DHT22;23441;50.856;6.076;2023-06-14T14:29:49;29.20;61.40
37594;DHT22;23441;50.856;6.076;2023-06-14T14:32:15;29.00;59.80
37594;DHT22;23441;50.856;6.076;2023-06-14T14:34:41;29.30;62.40
37594;DHT22;23441;50.856;6.076;2023-06-14T14:37:06;29.10;60.90
37594;DHT22;23441;50.856;6.076;2023-06-14T14:39:32;28.70;62.20
37594;DHT22;23441;50.856;6.076;2023-06-14T14:41:58;29.00;61.20
37594;DHT22;23441;50.856;6.076;2023-06-14T14:44:24;29.00;61.30
37594;DHT22;23441;50.856;6.076;2023-06-14T14:46:49;28.60;59.70
37594;DHT22;23441;50.856;6.076;2023-06-14T14:49:15;28.20;60.60
37594;DHT22;23441;50.856;6.076;2023-06-14T14:51:41;27.80;63.50
37594;DHT22;23441;50.856;6.076;2023-06-14T14:54:07;28.30;62.40
37594;DHT22;23441;50.856;6.076;2023-06-14T14:56:33;28.70;64.10
37594;DHT22;23441;50.856;6.076;2023-06-14T14:59:00;28.70;61.50
37594;DHT22;23441;50.856;6.076;2023-06-14T15:01:26;28.50;60.20
37594;DHT22;23441;50.856;6.076;2023-06-14T15:03:51;28.60;62.00
37594;DHT22;23441;50.856;6.076;2023-06-14T15:06:17;28.40;62.90
37594;DHT22;23441;50.856;6.076;2023-06-14T15:08:43;28.60;63.00
37594;DHT22;23441;50.856;6.076;2023-06-14T15:11:09;28.80;62.70
37594;DHT22;23441;50.856;6.076;2023-06-14T15:13:35;28.50;60.30
37594;DHT22;23441;50.856;6.076;2023-06-14T15:16:00;28.80;62.00
37594;DHT22;23441;50.856;6.076;2023-06-14T15:18:26;28.60;61.70
37594;DHT22;23441;50.856;6.076;2023-06-14T15:20:52;28.40;62.50
37594;DHT22;23441;50.856;6.076;2023-06-14T15:23:17;28.40;63.40
37594;DHT22;23441;50.856;6.076;2023-06-14T15:25:46;28.40;60.00
37594;DHT22;23441;50.856;6.076;2023-06-14T15:28:14;28.60;60.70
37594;DHT22;23441;50.856;6.076;2023-06-14T15:30:40;28.10;59.70
37594;DHT22;23441;50.856;6.076;2023-06-14T15:33:06;27.70;62.20
37594;DHT22;23441;50.856;6.076;2023-06-14T15:35:32;27.50;62.80
37594;DHT22;23441;50.856;6.076;2023-06-14T15:37:58;27.60;62.40
37594;DHT22;23441;50.856;6.076;2023-06-14T15:40:23;27.60;62.40
37594;DHT22;23441;50.856;6.076;2023-06-14T15:42:49;27.80;62.20
37594;DHT22;23441;50.856;6.076;2023-06-14T15:45:15;27.60;62.60
37594;DHT22;23441;50.856;6.076;2023-06-14T15:47:41;27.30;62.50
37594;DHT22;23441;50.856;6.076;2023-06-14T15:50:07;27.70;63.60
37594;DHT22;23441;50.856;6.076;2023-06-14T15:52:33;27.70;59.60
37594;DHT22;23441;50.856;6.076;2023-06-14T15:54:59;27.30;59.90
37594;DHT22;23441;50.856;6.076;2023-06-14T15:57:25;27.30;62.00
37594;DHT22;23441;50.856;6.076;2023-06-14T15:59:51;27.40;62.20
37594;DHT22;23441;50.856;6.076;2023-06-14T16:02:17;27.40;60.90
37594;DHT22;23441;50.856;6.076;2023-06-14T16:04:43;27.00;60.70
37594;DHT22;23441;50.856;6.076;2023-06-14T16:07:09;26.50;61.10
37594;DHT22;23441;50.856;6.076;2023-06-14T16:09:35;26.50;63.20
37594;DHT22;23441;50.856;6.076;2023-06-14T16:12:00;26.60;61.00